Holland, Minnesota
Current Conditions -  °F | °C
As of 2:14 PM on Thursday 23 Oct 2014 (Local Time) from KPQN Reporting Station
Clear Clear  
Wind Chill: 66°   Ceiling: Unl
Heat Index: 66°   Visibility: 10mi
Dew Point: 46°   Wind: 9mph
Humidity: 49%   Direction: 260°W
Pressure: 29.99"   Gusts: NA
Location:  44.09°N, 96.19°W
Report Text: KPQN 231914Z AUTO 26008KT 10SM CLR 19/08 A2999 RMK AO2
Loading
Personal Weather Stations






























Interactive Weather Map New forecast layout! Learn more

10-Day Weather Forecast

Advertisements
Track Severe Weather on mobile